Time;durP1;ratioP1;P1;durP2;ratioP2;P2;SDS_P1;SDS_P2;PMS_P1;PMS_P2;Temp;Humidity;BMP_temperature;BMP_pressure;BME280_temperature;BME280_humidity;BME280_pressure;Samples;Min_cycle;Max_cycle;Signal;HPM_P1;HPM_P2
2022/06/10 00:01:01;;;;;;;;;;;;;;;24.21;32.61;100405.94;5097528;28;20231;-71
2022/06/10 00:03:27;;;;;;;;;;;;;;;24.22;32.69;100413.88;5097549;28;19995;-71
2022/06/10 00:05:56;;;;;;;;;;;;;;;24.21;32.56;100411.41;5097246;28;20308;-71
2022/06/10 00:08:25;;;;;;;;;;;;;;;24.21;32.36;100414.94;5079003;28;19916;-71
2022/06/10 00:10:50;;;;;;;;;;;;;;;24.21;32.36;100428.59;5097515;28;19920;-70
2022/06/10 00:13:16;;;;;;;;;;;;;;;24.20;32.32;100424.25;5097302;28;19976;-69
2022/06/10 00:15:41;;;;;;;;;;;;;;;24.21;32.23;100435.97;5096908;28;19987;-69
2022/06/10 00:18:07;;;;;;;;;;;;;;;24.20;32.30;100435.16;5096816;28;19923;-69
2022/06/10 00:20:32;;;;;;;;;;;;;;;24.19;31.87;100436.25;5097235;28;19916;-69
2022/06/10 00:22:58;;;;;;;;;;;;;;;24.19;31.95;100431.59;5096905;28;19916;-69
2022/06/10 00:25:23;;;;;;;;;;;;;;;24.19;31.94;100436.25;5096648;28;19959;-69
2022/06/10 00:27:48;;;;;;;;;;;;;;;24.18;31.87;100432.72;5097168;28;19917;-69
2022/06/10 00:30:14;;;;;;;;;;;;;;;24.18;32.09;100432.72;5097025;28;20380;-69
2022/06/10 00:32:39;;;;;;;;;;;;;;;24.18;32.08;100435.44;5096965;28;19916;-68
2022/06/10 00:35:05;;;;;;;;;;;;;;;24.18;32.16;100438.19;5096931;28;19977;-68
2022/06/10 00:37:30;;;;;;;;;;;;;;;24.17;32.08;100431.06;5096492;28;20378;-70
2022/06/10 00:39:55;;;;;;;;;;;;;;;24.18;32.04;100434.59;5096396;28;19927;-69
2022/06/10 00:42:20;;;;;;;;;;;;;;;24.16;32.22;100434.91;5096537;28;19923;-69
2022/06/10 00:44:46;;;;;;;;;;;;;;;24.18;32.08;100438.19;5096706;28;20002;-69
2022/06/10 00:47:22;;;;;;;;;;;;;;;24.18;32.00;100437.34;5096411;28;19923;-69
2022/06/10 00:49:58;;;;;;;;;;;;;;;24.16;32.25;100437.63;5077682;28;20366;-69
2022/06/10 00:52:26;;;;;;;;;;;;;;;24.16;32.34;100431.34;5096574;28;19931;-69
2022/06/10 00:54:51;;;;;;;;;;;;;;;24.13;32.25;100438.19;5078693;28;19969;-69
2022/06/10 00:57:19;;;;;;;;;;;;;;;24.14;32.22;100437.06;5096331;28;20003;-71
2022/06/10 00:59:46;;;;;;;;;;;;;;;24.15;31.98;100440.66;5096417;28;19923;-71
2022/06/10 01:02:12;;;;;;;;;;;;;;;24.15;31.83;100444.19;5078389;28;19997;-71
2022/06/10 01:04:40;;;;;;;;;;;;;;;24.15;31.82;100440.66;5078322;28;19920;-71
2022/06/10 01:07:05;;;;;;;;;;;;;;;24.14;31.66;100434.34;5095947;28;19916;-71
2022/06/10 01:09:31;;;;;;;;;;;;;;;24.14;31.56;100437.06;5096013;28;19923;-71
2022/06/10 01:12:09;;;;;;;;;;;;;;;24.14;31.57;100444.47;5096240;28;19924;-71
2022/06/10 01:14:49;;;;;;;;;;;;;;;24.14;31.69;100437.06;5096492;28;20096;-72
2022/06/10 01:17:17;;;;;;;;;;;;;;;24.13;31.51;100446.38;5096187;28;19931;-72
2022/06/10 01:19:45;;;;;;;;;;;;;;;24.13;31.46;100442.84;5095768;28;19920;-72
2022/06/10 01:22:31;;;;;;;;;;;;;;;24.13;31.30;100446.38;5096158;28;19917;-71
2022/06/10 01:25:12;;;;;;;;;;;;;;;24.12;31.44;100450.19;5077821;28;20381;-72
2022/06/10 01:27:49;;;;;;;;;;;;;;;24.11;31.27;100451.31;5095903;28;19996;-72
2022/06/10 01:30:23;;;;;;;;;;;;;;;24.11;31.31;100448.56;5095770;28;19924;-71
2022/06/10 01:33:07;;;;;;;;;;;;;;;24.12;31.06;100450.19;5095682;28;19992;-71
2022/06/10 01:35:41;;;;;;;;;;;;;;;24.12;30.94;100455.66;5095544;28;20363;-72
2022/06/10 01:38:13;;;;;;;;;;;;;;;24.11;30.96;100450.47;5096189;28;20353;-72
2022/06/10 01:40:46;;;;;;;;;;;;;;;24.11;31.31;100456.75;5077788;28;19920;-71
2022/06/10 01:43:16;;;;;;;;;;;;;;;24.11;31.28;100458.66;5077603;28;19965;-71
2022/06/10 01:45:45;;;;;;;;;;;;;;;24.09;31.25;100453.47;5095587;28;20366;-71
2022/06/10 01:48:14;;;;;;;;;;;;;;;24.10;31.20;100457.84;5095454;28;19916;-71
2022/06/10 01:50:42;;;;;;;;;;;;;;;24.11;31.20;100453.19;5077175;28;20389;-72
2022/06/10 01:53:08;;;;;;;;;;;;;;;24.10;31.30;100457.84;5095138;28;19947;-70
2022/06/10 01:55:39;;;;;;;;;;;;;;;24.09;31.24;100456.19;5077578;28;19923;-69
2022/06/10 01:58:30;;;;;;;;;;;;;;;24.11;31.09;100456.75;5095000;28;20326;-69
2022/06/10 02:01:01;;;;;;;;;;;;;;;24.09;31.25;100464.38;5091750;28;19968;-69
2022/06/10 02:03:39;;;;;;;;;;;;;;;24.10;31.24;100466.03;5076328;28;20255;-69
2022/06/10 02:06:18;;;;;;;;;;;;;;;24.10;31.10;100468.75;5095215;28;19920;-69
2022/06/10 02:08:48;;;;;;;;;;;;;;;24.09;31.12;100469.84;5077107;28;19923;-69
2022/06/10 02:11:14;;;;;;;;;;;;;;;24.11;31.28;100473.16;5095210;28;19920;-68
2022/06/10 02:14:12;;;;;;;;;;;;;;;24.09;31.05;100475.31;5095047;28;19923;-69
2022/06/10 02:16:40;;;;;;;;;;;;;;;24.09;31.14;100469.03;5032458;28;20435;-69
2022/06/10 02:19:08;;;;;;;;;;;;;;;24.07;31.30;100466.59;5015719;28;19971;-69
2022/06/10 02:21:43;;;;;;;;;;;;;;;24.07;31.19;100476.69;5032384;28;19945;-68
2022/06/10 02:24:10;;;;;;;;;;;;;;;24.07;31.19;100471.22;5015838;28;19948;-69
2022/06/10 02:26:35;;;;;;;;;;;;;;;24.07;31.29;100474.78;5032325;28;19925;-68
2022/06/10 02:29:01;;;;;;;;;;;;;;;24.08;31.18;100472.88;5017839;28;19987;-68
2022/06/10 02:31:59;;;;;;;;;;;;;;;24.07;31.27;100477.50;5033434;28;19924;-68
2022/06/10 02:34:24;;;;;;;;;;;;;;;24.06;31.17;100481.34;4976000;28;19937;-68
2022/06/10 02:36:58;;;;;;;;;;;;;;;24.07;30.99;100477.50;4973682;28;19918;-68
2022/06/10 02:39:23;;;;;;;;;;;;;;;24.07;31.29;100477.50;4968967;28;20400;-68
2022/06/10 02:41:50;;;;;;;;;;;;;;;24.06;31.22;100478.63;4954084;29;19918;-68
2022/06/10 02:44:35;;;;;;;;;;;;;;;24.07;31.19;100473.97;4972944;28;20387;-69
2022/06/10 02:47:13;;;;;;;;;;;;;;;24.05;31.34;100482.44;4957004;28;20013;-69
2022/06/10 02:49:39;;;;;;;;;;;;;;;24.06;31.22;100475.88;4973185;28;19925;-69
2022/06/10 02:52:04;;;;;;;;;;;;;;;24.05;31.34;100479.69;4983280;28;20268;-71
2022/06/10 02:54:34;;;;;;;;;;;;;;;24.05;31.26;100484.34;5015456;28;19924;-71
2022/06/10 02:57:10;;;;;;;;;;;;;;;24.06;31.20;100486.81;5015442;28;20356;-71
2022/06/10 03:02:20;;;;;;;;;;;;;;;24.06;31.45;100477.78;5032018;28;20395;-71
2022/06/10 03:04:45;;;;;;;;;;;;;;;24.08;31.45;100483.81;5031815;28;19921;-71
2022/06/10 03:07:22;;;;;;;;;;;;;;;24.12;31.23;100490.34;5031695;28;19924;-71
2022/06/10 03:09:56;;;;;;;;;;;;;;;24.15;31.34;100490.59;5058053;28;19920;-71
2022/06/10 03:12:33;;;;;;;;;;;;;;;24.19;31.32;100490.88;5094161;28;19920;-71
2022/06/10 03:15:05;;;;;;;;;;;;;;;24.22;31.26;100493.06;5075758;28;19947;-71
2022/06/10 03:17:36;;;;;;;;;;;;;;;24.23;31.40;100496.59;5094029;28;19985;-71
2022/06/10 03:20:15;;;;;;;;;;;;;;;24.26;31.41;100498.78;5076009;28;20015;-71
2022/06/10 03:22:48;;;;;;;;;;;;;;;24.29;31.45;100495.50;5093891;28;19922;-71
2022/06/10 03:25:20;;;;;;;;;;;;;;;24.32;31.53;100494.94;5075644;28;19920;-72
2022/06/10 03:27:49;;;;;;;;;;;;;;;24.35;31.56;100491.63;5075872;28;19938;-71
2022/06/10 03:30:17;;;;;;;;;;;;;;;24.36;31.51;100494.09;5093919;28;20011;-72
2022/06/10 03:32:50;;;;;;;;;;;;;;;24.40;31.92;100502.56;5093657;28;20002;-71
2022/06/10 03:35:18;;;;;;;;;;;;;;;24.43;31.84;100499.28;5058706;28;20019;-71
2022/06/10 03:37:43;;;;;;;;;;;;;;;24.45;32.15;100499.81;5076341;28;19948;-71
2022/06/10 03:40:13;;;;;;;;;;;;;;;24.47;32.02;100503.06;5075080;28;20370;-71
2022/06/10 03:42:38;;;;;;;;;;;;;;;24.51;32.08;100504.16;5075299;28;19961;-70
2022/06/10 03:45:04;;;;;;;;;;;;;;;24.53;32.35;100507.44;5075627;28;20007;-69
2022/06/10 03:47:32;;;;;;;;;;;;;;;24.55;32.48;100508.00;5093642;28;19969;-69
2022/06/10 03:50:07;;;;;;;;;;;;;;;24.58;32.54;100520.31;5093664;28;19917;-69
2022/06/10 03:52:32;;;;;;;;;;;;;;;24.59;32.47;100521.91;5093287;28;19916;-69
2022/06/10 03:54:58;;;;;;;;;;;;;;;24.63;32.78;100522.19;5075596;28;19916;-69
2022/06/10 03:57:23;;;;;;;;;;;;;;;24.65;32.97;100520.00;5093354;28;19954;-69
2022/06/10 03:59:48;;;;;;;;;;;;;;;24.65;33.05;100520.81;5093314;28;19948;-69
2022/06/10 04:02:14;;;;;;;;;;;;;;;24.68;32.94;100533.09;5093436;28;20112;-70
2022/06/10 04:04:39;;;;;;;;;;;;;;;24.70;33.04;100525.47;5075230;28;19939;-69
2022/06/10 04:07:06;;;;;;;;;;;;;;;24.73;33.13;100522.97;5093275;28;19920;-69
2022/06/10 04:09:31;;;;;;;;;;;;;;;24.77;33.07;100528.72;5092797;28;19916;-69
2022/06/10 04:11:56;;;;;;;;;;;;;;;24.78;33.37;100522.13;5093120;28;20247;-69
2022/06/10 04:14:21;;;;;;;;;;;;;;;24.79;33.57;100525.69;5093225;28;19920;-69
2022/06/10 04:16:47;;;;;;;;;;;;;;;24.79;33.87;100528.44;5093059;28;20355;-70
2022/06/10 04:19:12;;;;;;;;;;;;;;;24.80;33.99;100539.09;5074518;28;19920;-69
2022/06/10 04:21:37;;;;;;;;;;;;;;;24.80;34.33;100539.09;5092720;28;19920;-67
2022/06/10 04:24:03;;;;;;;;;;;;;;;24.80;34.23;100540.97;5093084;28;19916;-69
2022/06/10 04:26:29;;;;;;;;;;;;;;;24.82;34.52;100536.88;5095018;28;20337;-69
2022/06/10 04:28:54;;;;;;;;;;;;;;;24.85;34.35;100541.81;5096192;28;19920;-69
2022/06/10 04:31:19;;;;;;;;;;;;;;;24.92;34.56;100538.75;5096285;28;20007;-69
2022/06/10 04:33:44;;;;;;;;;;;;;;;24.91;34.66;100537.94;5096704;28;19947;-69
2022/06/10 04:36:10;;;;;;;;;;;;;;;24.92;34.61;100542.31;5096768;28;20381;-72
2022/06/10 04:38:35;;;;;;;;;;;;;;;24.96;34.70;100550.78;5078673;28;20006;-71
2022/06/10 04:41:00;;;;;;;;;;;;;;;24.98;34.84;100551.31;5096089;28;19919;-71
2022/06/10 04:43:27;;;;;;;;;;;;;;;24.99;34.83;100549.38;5096320;28;19922;-71
2022/06/10 04:45:53;;;;;;;;;;;;;;;25.00;34.97;100546.38;5096148;28;20011;-71
2022/06/10 04:48:18;;;;;;;;;;;;;;;24.93;35.06;100554.88;5096569;28;20019;-72
2022/06/10 04:50:44;;;;;;;;;;;;;;;24.99;34.75;100552.13;5096217;28;20374;-70
2022/06/10 04:53:09;;;;;;;;;;;;;;;25.00;34.96;100553.75;5096940;28;19916;-70
2022/06/10 04:55:34;;;;;;;;;;;;;;;25.05;35.16;100556.47;5096448;28;19920;-72
2022/06/10 04:57:59;;;;;;;;;;;;;;;24.92;35.64;100557.88;5096211;28;20312;-70
2022/06/10 05:00:26;;;;;;;;;;;;;;;25.05;34.84;100564.66;5096463;28;19923;-70
2022/06/10 05:02:51;;;;;;;;;;;;;;;25.07;35.12;100559.75;5095710;28;20294;-70
2022/06/10 05:05:16;;;;;;;;;;;;;;;25.07;35.05;100570.66;5096042;28;19916;-71
2022/06/10 05:07:42;;;;;;;;;;;;;;;25.09;35.15;100563.00;5096382;28;20285;-70
2022/06/10 05:10:07;;;;;;;;;;;;;;;25.11;35.45;100563.53;5096170;28;20331;-70
2022/06/10 05:12:32;;;;;;;;;;;;;;;25.15;35.29;100567.38;5095501;28;20374;-70
2022/06/10 05:14:58;;;;;;;;;;;;;;;25.17;35.30;100569.81;5096055;28;19928;-70
2022/06/10 05:17:23;;;;;;;;;;;;;;;25.18;35.17;100566.81;5095568;28;19967;-70
2022/06/10 05:19:48;;;;;;;;;;;;;;;25.20;35.33;100575.53;5095656;28;20355;-70
2022/06/10 05:22:18;;;;;;;;;;;;;;;25.24;35.20;100576.59;5095929;28;19920;-70
2022/06/10 05:24:44;;;;;;;;;;;;;;;25.24;35.32;100576.59;5096084;28;19916;-68
2022/06/10 05:27:10;;;;;;;;;;;;;;;25.26;35.45;100574.44;5074968;28;19943;-68
2022/06/10 05:29:35;;;;;;;;;;;;;;;25.27;35.36;100578.81;5075009;28;20371;-68
2022/06/10 05:32:00;;;;;;;;;;;;;;;25.33;34.97;100584.25;5057335;28;19999;-69
2022/06/10 05:34:44;;;;;;;;;;;;;;;25.37;35.23;100585.31;5075024;28;19924;-69
2022/06/10 05:37:09;;;;;;;;;;;;;;;25.34;35.35;100586.72;5075208;28;19917;-69
2022/06/10 05:39:35;;;;;;;;;;;;;;;25.35;35.17;100593.00;5074868;28;19927;-69
2022/06/10 05:42:06;;;;;;;;;;;;;;;25.37;35.35;100588.91;5074626;28;20346;-69
2022/06/10 05:44:32;;;;;;;;;;;;;;;25.40;35.42;100592.97;5074226;28;19917;-68
2022/06/10 05:46:57;;;;;;;;;;;;;;;25.40;35.33;100601.19;5074487;28;19948;-68
2022/06/10 05:49:23;;;;;;;;;;;;;;;25.41;35.20;100603.63;5074591;28;20436;-68
2022/06/10 05:51:48;;;;;;;;;;;;;;;25.46;35.29;100605.53;5074578;28;19921;-67
2022/06/10 05:54:14;;;;;;;;;;;;;;;25.47;35.29;100609.88;5074867;28;19943;-67
2022/06/10 05:56:40;;;;;;;;;;;;;;;25.46;35.23;100611.00;5074576;28;20314;-67
2022/06/10 05:59:05;;;;;;;;;;;;;;;25.48;35.33;100609.59;5074596;28;20367;-67
2022/06/10 06:01:31;;;;;;;;;;;;;;;25.46;35.39;100616.47;5074452;28;20014;-67
2022/06/10 06:03:56;;;;;;;;;;;;;;;25.46;35.35;100614.53;5074564;28;19920;-67
2022/06/10 06:06:21;;;;;;;;;;;;;;;25.50;35.21;100617.53;5074576;28;20323;-68
2022/06/10 06:08:48;;;;;;;;;;;;;;;25.49;35.27;100622.19;5074763;28;19917;-73
2022/06/10 06:11:14;;;;;;;;;;;;;;;25.51;35.19;100627.41;5059475;28;19983;-72
2022/06/10 06:13:39;;;;;;;;;;;;;;;25.55;34.97;100625.72;5088441;28;19901;-73
2022/06/10 06:16:05;;;;;;;;;;;;;;;25.57;35.00;100626.25;5092735;28;19928;-73
2022/06/10 06:18:30;;;;;;;;;;;;;;;25.49;34.78;100635.03;5067088;28;19924;-72
2022/06/10 06:20:55;;;;;;;;;;;;;;;25.49;34.94;100630.41;5068305;28;19920;-72
2022/06/10 06:23:20;;;;;;;;;;;;;;;25.53;34.72;100638.88;5080551;28;20240;-73
2022/06/10 06:25:46;;;;;;;;;;;;;;;25.55;34.66;100631.19;5082983;28;19920;-74
2022/06/10 06:28:11;;;;;;;;;;;;;;;25.55;34.57;100633.13;5102879;28;19916;-73
2022/06/10 06:30:37;;;;;;;;;;;;;;;25.55;34.82;100642.13;5110322;28;19973;-72
2022/06/10 06:33:03;;;;;;;;;;;;;;;25.57;34.83;100642.66;5097125;28;19951;-72
2022/06/10 06:35:28;;;;;;;;;;;;;;;25.57;34.78;100644.59;5079331;28;19979;-73
2022/06/10 06:37:54;;;;;;;;;;;;;;;25.61;34.68;100651.13;5076619;28;20338;-74
2022/06/10 06:40:19;;;;;;;;;;;;;;;25.54;34.62;100650.63;5094683;28;20014;-75
2022/06/10 06:42:47;;;;;;;;;;;;;;;25.53;34.60;100660.75;5076271;28;19927;-74
2022/06/10 06:45:13;;;;;;;;;;;;;;;25.54;35.04;100665.13;5076644;28;19923;-73
2022/06/10 06:47:40;;;;;;;;;;;;;;;25.63;34.75;100671.66;5093606;28;19916;-73
2022/06/10 06:50:05;;;;;;;;;;;;;;;25.58;34.86;100670.88;5093688;28;19920;-74
2022/06/10 06:52:31;;;;;;;;;;;;;;;25.62;34.85;100674.66;5076609;28;19941;-73
2022/06/10 06:54:56;;;;;;;;;;;;;;;25.65;34.90;100677.66;5075522;28;19923;-73
2022/06/10 06:57:21;;;;;;;;;;;;;;;25.58;34.96;100668.94;5094153;28;19916;-73
2022/06/10 06:59:47;;;;;;;;;;;;;;;25.60;35.09;100665.94;5094214;28;19923;-73
2022/06/10 07:02:12;;;;;;;;;;;;;;;25.59;34.78;100667.81;5093779;28;20016;-73
2022/06/10 07:04:37;;;;;;;;;;;;;;;25.57;35.00;100664.56;5094370;28;19978;-73
2022/06/10 07:07:03;;;;;;;;;;;;;;;25.61;35.03;100667.53;5093984;28;20388;-74
2022/06/10 07:09:29;;;;;;;;;;;;;;;25.65;34.88;100663.16;5094034;28;19925;-72
2022/06/10 07:11:54;;;;;;;;;;;;;;;25.65;35.17;100671.38;5093803;28;19924;-73
2022/06/10 07:14:19;;;;;;;;;;;;;;;25.64;34.96;100673.28;5094038;28;19963;-73
2022/06/10 07:16:45;;;;;;;;;;;;;;;25.63;35.14;100666.19;5094011;28;19920;-73
2022/06/10 07:19:11;;;;;;;;;;;;;;;25.67;34.87;100672.72;5093634;28;20009;-73
2022/06/10 07:21:36;;;;;;;;;;;;;;;25.63;35.23;100671.66;5075719;28;19917;-73
2022/06/10 07:24:01;;;;;;;;;;;;;;;25.61;35.04;100668.38;5093793;28;19927;-72
2022/06/10 07:26:26;;;;;;;;;;;;;;;25.65;34.90;100674.94;5075090;28;20272;-73
2022/06/10 07:28:52;;;;;;;;;;;;;;;25.66;35.19;100676.56;5093326;28;19939;-72
2022/06/10 07:31:17;;;;;;;;;;;;;;;25.65;34.90;100674.94;5093522;28;19947;-73
2022/06/10 07:33:42;;;;;;;;;;;;;;;25.65;35.37;100674.13;5093505;28;20278;-73
2022/06/10 07:36:10;;;;;;;;;;;;;;;25.66;35.03;100662.03;5075953;28;19916;-74
2022/06/10 07:38:35;;;;;;;;;;;;;;;25.71;35.05;100661.22;5075798;28;20285;-73
2022/06/10 07:43:45;;;;;;;;;;;;;;;25.74;34.77;100671.59;5093562;28;19928;-74
2022/06/10 07:46:12;;;;;;;;;;;;;;;25.74;34.52;100674.34;5093560;28;19920;-74
2022/06/10 07:48:37;;;;;;;;;;;;;;;25.75;34.96;100678.69;5075684;28;19916;-74
2022/06/10 07:51:03;;;;;;;;;;;;;;;25.77;34.75;100680.06;5092889;28;20335;-71
2022/06/10 07:53:31;;;;;;;;;;;;;;;25.80;34.54;100664.97;5093149;28;19916;-71
2022/06/10 07:55:57;;;;;;;;;;;;;;;25.79;34.62;100663.38;5093061;28;20051;-71
2022/06/10 07:58:24;;;;;;;;;;;;;;;25.80;34.63;100662.25;5093508;28;19982;-70
2022/06/10 08:00:50;;;;;;;;;;;;;;;25.80;34.79;100660.34;5095084;28;19959;-70
2022/06/10 08:03:16;;;;;;;;;;;;;;;25.79;34.63;100664.16;5099047;28;19962;-71
2022/06/10 08:05:41;;;;;;;;;;;;;;;25.82;34.61;100668.28;5097775;28;20309;-69
2022/06/10 08:08:08;;;;;;;;;;;;;;;25.81;34.56;100663.88;5097374;28;19970;-70
2022/06/10 08:10:34;;;;;;;;;;;;;;;25.82;34.58;100669.09;5097318;28;19916;-70
2022/06/10 08:12:59;;;;;;;;;;;;;;;25.68;34.92;100679.84;5096653;28;19927;-70
2022/06/10 08:15:25;;;;;;;;;;;;;;;25.74;34.83;100674.34;5098437;28;19924;-71
2022/06/10 08:17:50;;;;;;;;;;;;;;;25.77;34.63;100666.38;5079249;28;19922;-70
2022/06/10 08:20:20;;;;;;;;;;;;;;;25.82;34.72;100662.81;5078173;28;20329;-70
2022/06/10 08:22:45;;;;;;;;;;;;;;;25.83;34.43;100672.63;5097220;28;19920;-71
2022/06/10 08:25:11;;;;;;;;;;;;;;;25.84;34.69;100675.09;5096571;28;20365;-70
2022/06/10 08:27:36;;;;;;;;;;;;;;;25.84;34.33;100677.00;5096573;28;20407;-70
2022/06/10 08:30:03;;;;;;;;;;;;;;;25.85;34.39;100674.00;5096753;28;19924;-70
2022/06/10 08:32:28;;;;;;;;;;;;;;;25.86;34.64;100672.06;5096803;28;19916;-71
2022/06/10 08:34:53;;;;;;;;;;;;;;;25.87;34.34;100676.44;5096871;28;19938;-70
2022/06/10 08:37:19;;;;;;;;;;;;;;;25.90;34.29;100675.88;5078724;28;20355;-71
2022/06/10 08:39:44;;;;;;;;;;;;;;;25.91;34.52;100679.44;5096312;28;20366;-71
2022/06/10 08:42:28;;;;;;;;;;;;;;;25.90;34.11;100677.78;5096506;28;19916;-71
2022/06/10 08:44:57;;;;;;;;;;;;;;;25.79;34.40;100691.53;5096383;28;19916;-69
2022/06/10 08:47:28;;;;;;;;;;;;;;;25.84;34.53;100690.72;5096005;28;20370;-69
2022/06/10 08:50:12;;;;;;;;;;;;;;;25.84;34.60;100691.50;5095865;28;19916;-69
2022/06/10 08:52:40;;;;;;;;;;;;;;;25.88;34.33;100686.28;5096044;28;19916;-69
2022/06/10 08:55:25;;;;;;;;;;;;;;;25.91;34.31;100690.41;5096092;28;19919;-70
2022/06/10 08:57:50;;;;;;;;;;;;;;;25.90;34.35;100689.56;5096398;28;20257;-69
2022/06/10 09:00:25;;;;;;;;;;;;;;;25.88;34.38;100683.56;5095484;28;20044;-69
2022/06/10 09:03:00;;;;;;;;;;;;;;;25.78;34.80;100684.41;5096224;28;19931;-69
2022/06/10 09:05:26;;;;;;;;;;;;;;;25.84;34.53;100688.78;5077653;28;19986;-69
2022/06/10 09:08:01;;;;;;;;;;;;;;;25.90;34.45;100686.81;5095637;28;19916;-69
2022/06/10 09:10:35;;;;;;;;;;;;;;;25.95;34.44;100684.06;5095539;28;19916;-69
2022/06/10 09:13:07;;;;;;;;;;;;;;;25.92;34.72;100684.63;5095432;28;20034;-69
2022/06/10 09:15:32;;;;;;;;;;;;;;;25.91;34.31;100690.41;5096025;28;19927;-68
2022/06/10 09:18:01;;;;;;;;;;;;;;;25.95;34.56;100695.03;5094928;28;19916;-69
2022/06/10 09:20:27;;;;;;;;;;;;;;;25.96;34.66;100690.41;5095338;28;19935;-74
2022/06/10 09:23:02;;;;;;;;;;;;;;;25.96;34.37;100690.41;5077544;28;20366;-75
2022/06/10 09:25:38;;;;;;;;;;;;;;;26.01;34.31;100690.38;5060494;28;20014;-73
2022/06/10 09:28:03;;;;;;;;;;;;;;;26.01;34.19;100699.38;5095431;28;20460;-72
2022/06/10 09:30:49;;;;;;;;;;;;;;;26.04;34.18;100690.63;5095973;28;19962;-73
2022/06/10 09:33:19;;;;;;;;;;;;;;;26.03;34.27;100691.69;5032835;28;19921;-71
2022/06/10 09:35:54;;;;;;;;;;;;;;;26.05;34.31;100694.97;5033188;28;20007;-72
2022/06/10 09:38:29;;;;;;;;;;;;;;;26.01;34.45;100699.38;5032675;28;19932;-72
2022/06/10 09:41:11;;;;;;;;;;;;;;;26.04;34.46;100704.31;5026436;28;19918;-73
2022/06/10 09:43:43;;;;;;;;;;;;;;;26.04;34.46;100707.03;5012669;28;20376;-73
2022/06/10 09:46:26;;;;;;;;;;;;;;;26.10;34.20;100709.75;5012672;28;20439;-72
2022/06/10 09:48:51;;;;;;;;;;;;;;;26.10;34.28;100713.31;5012314;28;19928;-73
2022/06/10 09:51:35;;;;;;;;;;;;;;;26.11;34.36;100714.09;5012620;28;19918;-73
2022/06/10 09:54:21;;;;;;;;;;;;;;;26.07;34.24;100715.78;5013033;28;20009;-73
2022/06/10 09:56:57;;;;;;;;;;;;;;;26.08;34.27;100715.50;5011713;28;19924;-73
2022/06/10 09:59:28;;;;;;;;;;;;;;;26.12;34.30;100710.28;5012177;28;19976;-73
2022/06/10 10:02:12;;;;;;;;;;;;;;;26.13;34.35;100712.72;5012080;28;19917;-72
2022/06/10 10:04:49;;;;;;;;;;;;;;;26.13;34.17;100706.41;5012287;28;19917;-72
2022/06/10 10:07:17;;;;;;;;;;;;;;;26.12;34.20;100705.59;5012139;28;19932;-72
2022/06/10 10:09:48;;;;;;;;;;;;;;;26.12;33.94;100707.53;5031641;28;19916;-73
2022/06/10 10:12:33;;;;;;;;;;;;;;;26.08;33.83;100709.19;5093854;28;19985;-72
2022/06/10 10:15:05;;;;;;;;;;;;;;;26.13;33.88;100711.91;5011706;28;20253;-73
2022/06/10 10:17:30;;;;;;;;;;;;;;;26.15;33.83;100701.50;4995630;28;19996;-72
2022/06/10 10:19:56;;;;;;;;;;;;;;;26.14;33.85;100699.84;5011938;28;20273;-73
2022/06/10 10:22:22;;;;;;;;;;;;;;;26.09;33.70;100700.69;5011722;28;19917;-73
2022/06/10 10:24:47;;;;;;;;;;;;;;;26.07;34.12;100704.84;5011352;28;19942;-70
2022/06/10 10:27:18;;;;;;;;;;;;;;;26.15;34.21;100699.56;5011738;28;19921;-69
2022/06/10 10:29:43;;;;;;;;;;;;;;;26.15;33.89;100701.50;5011947;28;19918;-69
2022/06/10 10:32:13;;;;;;;;;;;;;;;26.19;33.66;100710.78;5011424;28;19949;-69
2022/06/10 10:34:39;;;;;;;;;;;;;;;26.22;33.64;100712.94;4995208;28;20257;-69
2022/06/10 10:37:06;;;;;;;;;;;;;;;26.21;33.82;100700.34;5011325;28;19936;-70
2022/06/10 10:39:38;;;;;;;;;;;;;;;26.28;33.67;100709.06;4995330;28;19926;-69
2022/06/10 10:42:24;;;;;;;;;;;;;;;26.32;33.65;100704.66;5009483;28;19960;-70
2022/06/10 10:44:49;;;;;;;;;;;;;;;26.29;33.70;100699.75;5031298;28;19976;-70
2022/06/10 10:47:19;;;;;;;;;;;;;;;26.27;33.74;100701.97;5031366;28;20381;-69
2022/06/10 10:49:53;;;;;;;;;;;;;;;26.31;33.67;100704.94;5014626;28;20463;-70
2022/06/10 10:52:22;;;;;;;;;;;;;;;26.30;33.80;100704.13;5068533;28;19943;-70
2022/06/10 10:54:48;;;;;;;;;;;;;;;26.29;33.59;100699.75;5093526;28;19916;-72
2022/06/10 10:57:14;;;;;;;;;;;;;;;26.34;33.40;100707.13;5075673;28;19916;-70
2022/06/10 10:59:40;;;;;;;;;;;;;;;26.33;33.25;100708.19;5095158;28;20245;-70
2022/06/10 11:02:24;;;;;;;;;;;;;;;26.27;33.56;100704.69;5113901;28;20022;-71
2022/06/10 11:04:49;;;;;;;;;;;;;;;26.33;33.35;100705.47;5115099;28;19949;-70
2022/06/10 11:07:15;;;;;;;;;;;;;;;26.31;33.42;100705.75;5114661;28;20393;-71
2022/06/10 11:09:50;;;;;;;;;;;;;;;26.36;33.29;100702.16;5114006;28;19927;-70
2022/06/10 11:12:22;;;;;;;;;;;;;;;26.36;33.45;100710.38;5113495;28;20219;-70
2022/06/10 11:14:48;;;;;;;;;;;;;;;26.31;33.51;100708.50;5095550;28;19919;-70
2022/06/10 11:17:15;;;;;;;;;;;;;;;26.34;33.40;100707.91;5095509;28;19922;-70
2022/06/10 11:19:52;;;;;;;;;;;;;;;26.32;33.38;100704.66;5096052;28;19916;-70
2022/06/10 11:22:27;;;;;;;;;;;;;;;26.37;33.22;100707.34;5113611;28;19923;-70
2022/06/10 11:25:15;;;;;;;;;;;;;;;26.37;33.21;100706.53;5113831;28;19922;-70
2022/06/10 11:27:49;;;;;;;;;;;;;;;26.36;33.24;100700.22;5100770;28;19928;-70
2022/06/10 11:30:15;;;;;;;;;;;;;;;26.36;33.24;100697.50;5114013;28;20028;-72
2022/06/10 11:32:40;;;;;;;;;;;;;;;26.28;33.30;100698.09;5113775;28;20351;-69
2022/06/10 11:35:34;;;;;;;;;;;;;;;26.24;33.58;100695.09;5115961;28;20097;-70
2022/06/10 11:38:02;;;;;;;;;;;;;;;26.27;33.55;100704.69;5035055;28;19929;-70
2022/06/10 11:40:35;;;;;;;;;;;;;;;26.22;33.71;100700.06;5035209;28;20442;-70
2022/06/10 11:43:06;;;;;;;;;;;;;;;26.26;33.56;100694.81;5055047;28;19917;-70
2022/06/10 11:45:38;;;;;;;;;;;;;;;26.22;33.79;100693.78;5055011;28;19917;-70
2022/06/10 11:48:05;;;;;;;;;;;;;;;26.22;33.66;100696.50;5055044;28;19967;-70
2022/06/10 11:50:35;;;;;;;;;;;;;;;26.23;33.70;100696.22;5054767;28;19948;-69
2022/06/10 11:53:09;;;;;;;;;;;;;;;26.23;33.58;100696.22;5054844;28;19921;-70
2022/06/10 11:55:35;;;;;;;;;;;;;;;26.23;33.77;100695.38;5054878;28;20095;-70
2022/06/10 12:01:11;;;;;;;;;;;;;;;26.24;33.71;100697.03;5054813;28;19935;-70
2022/06/10 12:03:42;;;;;;;;;;;;;;;26.26;33.86;100700.31;5054600;28;19917;-69
2022/06/10 12:06:19;;;;;;;;;;;;;;;26.28;33.59;100695.34;5054527;28;19971;-69
2022/06/10 12:08:52;;;;;;;;;;;;;;;26.28;33.92;100695.34;5054257;28;20111;-69
2022/06/10 12:11:36;;;;;;;;;;;;;;;26.29;33.78;100705.22;5054496;28;19948;-69
2022/06/10 12:14:05;;;;;;;;;;;;;;;26.29;33.56;100699.75;5076558;28;19916;-69
2022/06/10 12:16:33;;;;;;;;;;;;;;;26.19;33.99;100702.56;5117152;28;20006;-67
2022/06/10 12:18:59;;;;;;;;;;;;;;;26.23;33.97;100703.59;5117525;28;19915;-67
2022/06/10 12:21:24;;;;;;;;;;;;;;;26.22;33.89;100705.53;5098914;28;19970;-66
2022/06/10 12:23:50;;;;;;;;;;;;;;;26.19;33.65;100697.88;5117949;28;19916;-67
2022/06/10 12:26:15;;;;;;;;;;;;;;;26.23;34.01;100701.72;5098543;28;20401;-67
2022/06/10 12:28:42;;;;;;;;;;;;;;;26.21;34.03;100694.88;5117075;28;20004;-67
2022/06/10 12:31:26;;;;;;;;;;;;;;;26.20;33.83;100690.50;5117129;28;19974;-67
2022/06/10 12:33:59;;;;;;;;;;;;;;;26.18;34.17;100688.06;5116764;28;19945;-67
2022/06/10 12:36:37;;;;;;;;;;;;;;;26.20;34.10;100693.25;5099239;28;19920;-67
2022/06/10 12:39:03;;;;;;;;;;;;;;;26.20;34.02;100691.31;5098959;28;19920;-66
2022/06/10 12:41:47;;;;;;;;;;;;;;;26.22;34.03;100688.28;5123458;27;20270;-67
2022/06/10 12:44:14;;;;;;;;;;;;;;;26.22;34.06;100683.63;5121338;27;20010;-67
2022/06/10 12:46:40;;;;;;;;;;;;;;;26.24;34.05;100680.59;5119283;27;19958;-67
2022/06/10 12:49:15;;;;;;;;;;;;;;;26.24;34.02;100684.16;5137655;27;19919;-67
2022/06/10 12:51:41;;;;;;;;;;;;;;;26.26;34.17;100688.53;5119006;27;19926;-67
2022/06/10 12:54:12;;;;;;;;;;;;;;;26.30;34.04;100679.47;5118952;27;19915;-67